createdAt,value
2023-02-14T00:01:49.338Z,102474.79
2023-02-14T00:04:19.405Z,102470.50
2023-02-14T00:06:48.446Z,102473.04
2023-02-14T00:09:20.565Z,102475.20
2023-02-14T00:11:49.815Z,102474.99
2023-02-14T00:14:36.911Z,102475.29
2023-02-14T00:17:05.380Z,102477.80
2023-02-14T00:19:36.357Z,102477.09
2023-02-14T00:22:05.885Z,102479.06
2023-02-14T00:24:34.894Z,102476.83
2023-02-14T00:27:03.455Z,102479.83
2023-02-14T00:29:32.694Z,102476.53
2023-02-14T00:32:04.274Z,102470.67
2023-02-14T00:34:33.706Z,102470.67
2023-02-14T00:37:03.031Z,102470.73
2023-02-14T00:39:31.461Z,102471.07
2023-02-14T00:41:59.909Z,102477.02
2023-02-14T00:44:28.460Z,102476.16
2023-02-14T00:46:57.110Z,102474.50
2023-02-14T00:49:25.651Z,102479.55
2023-02-14T00:51:54.191Z,102483.89
2023-02-14T00:54:22.862Z,102483.80
2023-02-14T00:56:52.429Z,102487.56
2023-02-14T00:59:20.901Z,102486.63
2023-02-14T01:01:50.180Z,102486.60
2023-02-14T01:04:18.889Z,102488.86
2023-02-14T01:06:47.589Z,102492.00
2023-02-14T01:09:16.050Z,102490.64
2023-02-14T01:11:44.543Z,102496.97
2023-02-14T01:14:12.976Z,102495.77
2023-02-14T01:16:41.485Z,102495.45
2023-02-14T01:19:10.054Z,102496.73
2023-02-14T01:21:38.646Z,102492.57
2023-02-14T01:24:08.554Z,102488.29
2023-02-14T01:26:37.232Z,102490.29
2023-02-14T01:29:06.148Z,102483.60
2023-02-14T01:31:36.282Z,102481.49
2023-02-14T01:34:05.158Z,102477.42
2023-02-14T01:36:39.772Z,102475.83
2023-02-14T01:39:14.213Z,102471.62
2023-02-14T01:41:44.526Z,102469.30
2023-02-14T01:44:16.073Z,102470.89
2023-02-14T01:46:46.697Z,102470.58
2023-02-14T01:49:22.352Z,102471.99
2023-02-14T01:52:04.717Z,102469.70
2023-02-14T01:54:36.395Z,102470.52
2023-02-14T01:57:10.047Z,102468.77
2023-02-14T01:59:43.883Z,102464.77
2023-02-14T02:02:12.759Z,102467.84
2023-02-14T02:04:45.113Z,102468.73
2023-02-14T02:07:19.776Z,102471.23
2023-02-14T02:09:55.119Z,102472.90
2023-02-14T02:12:25.336Z,102467.11
2023-02-14T02:14:56.709Z,102467.44
2023-02-14T02:17:37.600Z,102462.84
2023-02-14T02:20:24.327Z,102456.30
2023-02-14T02:23:04.786Z,102452.63
2023-02-14T02:25:57.726Z,102458.10
2023-02-14T02:29:03.870Z,102458.44
2023-02-14T02:31:52.965Z,102456.95
2023-02-14T02:34:40.080Z,102453.09
2023-02-14T02:37:20.674Z,102449.10
2023-02-14T02:40:31.604Z,102453.20
2023-02-14T02:43:48.279Z,102455.57
2023-02-14T02:46:50.373Z,102458.81
2023-02-14T02:50:00.801Z,102449.83
2023-02-14T02:53:03.428Z,102441.50
2023-02-14T02:56:18.722Z,102440.92
2023-02-14T02:59:18.606Z,102439.46
2023-02-14T03:02:16.610Z,102439.39
2023-02-14T03:04:56.446Z,102438.52
2023-02-14T03:07:37.735Z,102435.61
2023-02-14T03:10:20.270Z,102434.88
2023-02-14T03:13:35.156Z,102441.45
2023-02-14T03:16:20.627Z,102442.92
2023-02-14T03:19:16.928Z,102441.54
2023-02-14T03:22:05.665Z,102442.64
2023-02-14T03:24:51.718Z,102442.98
2023-02-14T03:27:33.007Z,102448.05
2023-02-14T03:30:26.320Z,102456.44
2023-02-14T03:33:06.522Z,102453.25
2023-02-14T03:35:48.838Z,102457.02
2023-02-14T03:38:29.939Z,102456.65
2023-02-14T03:41:15.039Z,102456.68
2023-02-14T03:43:49.992Z,102457.71
2023-02-14T03:46:37.356Z,102452.08
2023-02-14T03:49:12.086Z,102452.66
2023-02-14T03:51:42.133Z,102453.08
2023-02-14T03:54:13.972Z,102458.88
2023-02-14T03:56:52.213Z,102459.71
2023-02-14T03:59:24.725Z,102457.48
2023-02-14T04:02:09.041Z,102458.86
2023-02-14T04:04:43.006Z,102457.63
2023-02-14T04:07:18.216Z,102453.80
2023-02-14T04:09:47.171Z,102450.16
2023-02-14T04:12:21.711Z,102445.92
2023-02-14T04:14:52.688Z,102448.14
2023-02-14T04:17:39.913Z,102450.11
2023-02-14T04:20:08.639Z,102454.34
2023-02-14T04:22:37.091Z,102456.94
2023-02-14T04:25:06.003Z,102455.02
2023-02-14T04:27:34.477Z,102451.98
2023-02-14T04:30:04.388Z,102451.79
2023-02-14T04:32:32.925Z,102459.78
2023-02-14T04:35:01.595Z,102453.84
2023-02-14T04:37:30.126Z,102459.96
2023-02-14T04:39:58.605Z,102464.57
2023-02-14T04:42:27.306Z,102461.03
2023-02-14T04:44:55.870Z,102457.77
2023-02-14T04:47:24.306Z,102457.05
2023-02-14T04:49:52.741Z,102455.91
2023-02-14T04:52:21.136Z,102452.95
2023-02-14T04:54:49.608Z,102452.16
2023-02-14T04:57:18.148Z,102455.46
2023-02-14T04:59:46.693Z,102455.48
2023-02-14T05:02:15.273Z,102456.63
2023-02-14T05:04:43.827Z,102453.02
2023-02-14T05:07:12.810Z,102450.95
2023-02-14T05:09:41.209Z,102449.13
2023-02-14T05:12:09.678Z,102450.94
2023-02-14T05:14:38.081Z,102444.26
2023-02-14T05:17:06.537Z,102440.37
2023-02-14T05:19:35.006Z,102447.98
2023-02-14T05:22:03.481Z,102445.29
2023-02-14T05:24:32.050Z,102445.90
2023-02-14T05:27:00.548Z,102448.59
2023-02-14T05:29:29.322Z,102450.60
2023-02-14T05:31:57.798Z,102457.23
2023-02-14T05:34:26.311Z,102458.95
2023-02-14T05:36:55.292Z,102461.91
2023-02-14T05:39:23.867Z,102462.69
2023-02-14T05:41:52.331Z,102468.35
2023-02-14T05:44:20.971Z,102466.55
2023-02-14T05:46:49.873Z,102468.59
2023-02-14T05:49:18.420Z,102467.76
2023-02-14T05:51:46.893Z,102467.18
2023-02-14T05:54:15.490Z,102466.32
2023-02-14T05:56:43.884Z,102467.70
2023-02-14T05:59:14.468Z,102464.67
2023-02-14T06:01:42.909Z,102471.45
2023-02-14T06:04:11.392Z,102470.29
2023-02-14T06:06:40.053Z,102476.21
2023-02-14T06:09:08.509Z,102473.06
2023-02-14T06:11:36.995Z,102481.27
2023-02-14T06:14:05.550Z,102484.69
2023-02-14T06:16:34.078Z,102479.86
2023-02-14T06:19:02.555Z,102480.11
2023-02-14T06:21:31.426Z,102486.72
2023-02-14T06:23:59.862Z,102488.39
2023-02-14T06:26:28.452Z,102491.27
2023-02-14T06:28:59.200Z,102493.27
2023-02-14T06:31:27.891Z,102492.95
2023-02-14T06:33:56.811Z,102495.52
2023-02-14T06:36:25.586Z,102490.10
2023-02-14T06:38:54.328Z,102492.20
2023-02-14T06:41:22.827Z,102491.36
2023-02-14T06:43:51.419Z,102491.33
2023-02-14T06:46:20.717Z,102491.11
2023-02-14T06:48:49.479Z,102490.05
2023-02-14T06:51:18.040Z,102495.52
2023-02-14T06:53:46.448Z,102495.43
2023-02-14T06:56:14.968Z,102499.27
2023-02-14T06:58:43.442Z,102493.19
2023-02-14T07:01:11.957Z,102494.52
2023-02-14T07:03:40.386Z,102499.56
2023-02-14T07:06:08.892Z,102500.52
2023-02-14T07:08:37.325Z,102501.16
2023-02-14T07:11:06.016Z,102502.93
2023-02-14T07:13:34.503Z,102507.92
2023-02-14T07:16:03.314Z,102511.02
2023-02-14T07:18:31.866Z,102514.73
2023-02-14T07:21:00.641Z,102514.89
2023-02-14T07:23:29.593Z,102512.69
2023-02-14T07:25:58.080Z,102515.33
2023-02-14T07:28:26.599Z,102517.61
2023-02-14T07:30:55.173Z,102522.32
2023-02-14T07:33:23.920Z,102524.59
2023-02-14T07:35:52.445Z,102527.48
2023-02-14T07:38:20.945Z,102530.42
2023-02-14T07:40:49.362Z,102525.58
2023-02-14T07:43:20.111Z,102525.89
2023-02-14T07:45:49.158Z,102530.18
2023-02-14T07:48:17.674Z,102533.52
2023-02-14T07:50:46.360Z,102532.91
2023-02-14T07:53:15.213Z,102529.28
2023-02-14T07:55:43.681Z,102533.09
2023-02-14T07:58:12.117Z,102532.70
2023-02-14T08:00:40.639Z,102531.82
2023-02-14T08:03:09.130Z,102526.08
2023-02-14T08:05:38.382Z,102528.88
2023-02-14T08:08:06.934Z,102531.37
2023-02-14T08:10:35.453Z,102532.92
2023-02-14T08:13:04.241Z,102531.41
2023-02-14T08:15:53.697Z,102530.72
2023-02-14T08:18:23.421Z,102526.63
2023-02-14T08:20:52.015Z,102529.35
2023-02-14T08:23:21.518Z,102530.70
2023-02-14T08:25:51.816Z,102534.86
2023-02-14T08:28:23.908Z,102541.80
2023-02-14T08:30:53.204Z,102550.80
2023-02-14T08:33:22.286Z,102550.71
2023-02-14T08:35:52.058Z,102548.32
2023-02-14T08:38:20.595Z,102549.62
2023-02-14T08:40:49.138Z,102560.00
2023-02-14T08:43:17.796Z,102555.45
2023-02-14T08:45:48.685Z,102547.30
2023-02-14T08:48:17.175Z,102542.60
2023-02-14T08:50:45.749Z,102549.30
2023-02-14T08:53:14.292Z,102553.91
2023-02-14T08:55:42.902Z,102549.91
2023-02-14T08:58:11.633Z,102546.55
2023-02-14T09:00:40.365Z,102552.72
2023-02-14T09:03:10.919Z,102559.23
2023-02-14T09:05:39.605Z,102564.15
2023-02-14T09:08:08.168Z,102566.91
2023-02-14T09:10:36.998Z,102563.63
2023-02-14T09:13:06.016Z,102562.90
2023-02-14T09:15:34.889Z,102565.30
2023-02-14T09:18:03.478Z,102569.37
2023-02-14T09:20:32.234Z,102575.69
2023-02-14T09:23:00.695Z,102576.00
2023-02-14T09:25:29.209Z,102571.73
2023-02-14T09:27:57.702Z,102572.71
2023-02-14T09:30:26.367Z,102577.77
2023-02-14T09:32:55.097Z,102575.34
2023-02-14T09:35:42.092Z,102570.44
2023-02-14T09:38:20.996Z,102561.89
2023-02-14T09:40:50.813Z,102563.61
2023-02-14T09:43:34.651Z,102565.11
2023-02-14T09:46:04.677Z,102568.19
2023-02-14T09:48:38.605Z,102565.16
2023-02-14T09:51:23.791Z,102566.42
2023-02-14T09:54:02.817Z,102568.73
2023-02-14T09:56:52.517Z,102562.76
2023-02-14T09:59:29.965Z,102555.59
2023-02-14T10:02:16.364Z,102556.74
2023-02-14T10:04:56.959Z,102563.36
2023-02-14T10:07:41.013Z,102555.02
2023-02-14T10:10:25.687Z,102552.04
2023-02-14T10:13:03.162Z,102553.11
2023-02-14T10:15:48.467Z,102555.35
2023-02-14T10:18:36.044Z,102558.05
2023-02-14T10:21:08.355Z,102554.36
2023-02-14T10:23:51.764Z,102544.45
2023-02-14T10:26:28.425Z,102538.22
2023-02-14T10:28:57.165Z,102550.26
2023-02-14T10:31:51.817Z,102546.23
2023-02-14T10:34:37.434Z,102540.80
2023-02-14T10:37:43.416Z,102540.64
2023-02-14T10:40:49.534Z,102544.28
2023-02-14T10:43:45.702Z,102542.08
2023-02-14T10:46:16.466Z,102536.41
2023-02-14T10:48:57.393Z,102530.96
2023-02-14T10:51:41.236Z,102536.64
2023-02-14T10:54:20.949Z,102546.38
2023-02-14T10:57:01.073Z,102536.91
2023-02-14T10:59:39.650Z,102528.14
2023-02-14T11:02:14.137Z,102530.66
2023-02-14T11:04:44.219Z,102530.77
2023-02-14T11:07:14.893Z,102532.30
2023-02-14T11:09:43.329Z,102527.46
2023-02-14T11:12:12.682Z,102527.29
2023-02-14T11:14:41.452Z,102530.36
2023-02-14T11:17:32.591Z,102528.62
2023-02-14T11:20:06.914Z,102526.39
2023-02-14T11:22:35.965Z,102522.33
2023-02-14T11:25:08.526Z,102518.34
2023-02-14T11:27:37.893Z,102513.05
2023-02-14T11:30:20.150Z,102509.98
2023-02-14T11:32:56.478Z,102507.27
2023-02-14T11:35:34.054Z,102503.73
2023-02-14T11:38:06.157Z,102504.77
2023-02-14T11:40:38.193Z,102507.33
2023-02-14T11:43:14.755Z,102508.79
2023-02-14T11:45:46.299Z,102510.08
2023-02-14T11:48:37.771Z,102509.37
2023-02-14T11:51:16.230Z,102506.14
2023-02-14T11:53:52.265Z,102508.57
2023-02-14T11:56:22.731Z,102506.23
2023-02-14T11:58:57.343Z,102497.23
2023-02-14T12:01:30.894Z,102497.65
2023-02-14T12:04:05.623Z,102495.56
2023-02-14T12:06:36.950Z,102489.48
2023-02-14T12:09:12.959Z,102476.89
2023-02-14T12:11:41.508Z,102480.91
2023-02-14T12:14:22.439Z,102481.64
2023-02-14T12:17:05.115Z,102480.78
2023-02-14T12:19:46.350Z,102482.75
2023-02-14T12:22:28.287Z,102485.43
2023-02-14T12:25:21.682Z,102489.73
2023-02-14T12:28:04.371Z,102484.13
2023-02-14T12:30:35.089Z,102483.30
2023-02-14T12:33:06.189Z,102486.81
2023-02-14T12:36:01.883Z,102490.15
2023-02-14T12:39:18.204Z,102487.20
2023-02-14T12:41:46.558Z,102482.02
2023-02-14T12:44:30.786Z,102478.55
2023-02-14T12:47:28.879Z,102475.73
2023-02-14T12:50:27.675Z,102475.04
2023-02-14T12:53:17.474Z,102471.27
2023-02-14T12:56:02.741Z,102462.79
2023-02-14T12:58:58.537Z,102466.16
2023-02-14T13:01:38.891Z,102474.38
2023-02-14T13:04:27.054Z,102472.45
2023-02-14T13:07:09.379Z,102462.81
2023-02-14T13:10:15.535Z,102465.85
2023-02-14T13:13:08.447Z,102467.90
2023-02-14T13:15:56.179Z,102466.25
2023-02-14T13:18:49.970Z,102454.65
2023-02-14T13:21:24.766Z,102462.48
2023-02-14T13:24:06.594Z,102466.25
2023-02-14T13:26:40.183Z,102471.20
2023-02-14T13:29:16.986Z,102465.28
2023-02-14T13:31:45.818Z,102469.23
2023-02-14T13:34:24.636Z,102472.25
2023-02-14T13:36:55.752Z,102469.18
2023-02-14T13:39:38.319Z,102467.60
2023-02-14T13:42:07.879Z,102462.73
2023-02-14T13:44:39.127Z,102463.30
2023-02-14T13:47:08.871Z,102464.75
2023-02-14T13:49:40.718Z,102457.08
2023-02-14T13:52:10.255Z,102458.38
2023-02-14T13:54:48.374Z,102460.55
2023-02-14T13:57:31.669Z,102462.45
2023-02-14T14:00:19.057Z,102464.01
2023-02-14T14:02:51.969Z,102457.46
2023-02-14T14:05:30.546Z,102457.50
2023-02-14T14:08:21.147Z,102458.61
2023-02-14T14:11:01.889Z,102460.73
2023-02-14T14:13:42.451Z,102457.14
2023-02-14T14:16:29.173Z,102453.82
2023-02-14T14:19:00.557Z,102451.00
2023-02-14T14:21:32.783Z,102448.77
2023-02-14T14:24:26.548Z,102447.67
2023-02-14T14:26:55.606Z,102441.40
2023-02-14T14:29:36.235Z,102437.39
2023-02-14T14:32:25.694Z,102435.10
2023-02-14T14:35:01.064Z,102435.05
2023-02-14T14:37:34.898Z,102436.36
2023-02-14T14:40:06.938Z,102435.45
2023-02-14T14:42:41.173Z,102432.04
2023-02-14T14:45:23.116Z,102441.48
2023-02-14T14:47:54.532Z,102436.23
2023-02-14T14:50:31.953Z,102429.27
2023-02-14T14:53:07.409Z,102424.53
2023-02-14T14:55:38.127Z,102430.04
2023-02-14T14:58:28.344Z,102436.15
2023-02-14T15:00:56.945Z,102429.08
2023-02-14T15:03:27.439Z,102427.41
2023-02-14T15:06:20.799Z,102433.77
2023-02-14T15:08:50.113Z,102432.23
2023-02-14T15:11:46.379Z,102423.05
2023-02-14T15:14:23.132Z,102418.67
2023-02-14T15:16:57.867Z,102417.39
2023-02-14T15:19:51.123Z,102410.11
2023-02-14T15:22:24.213Z,102410.52
2023-02-14T15:24:53.788Z,102404.60
2023-02-14T15:27:25.399Z,102405.73
2023-02-14T15:30:09.402Z,102402.70
2023-02-14T15:32:38.562Z,102400.54
2023-02-14T15:35:07.401Z,102398.29
2023-02-14T15:37:35.993Z,102403.80
2023-02-14T15:40:09.086Z,102397.95
2023-02-14T15:42:43.768Z,102396.45
2023-02-14T15:45:15.280Z,102394.04
2023-02-14T15:47:47.847Z,102393.12
2023-02-14T15:50:20.382Z,102392.48
2023-02-14T15:52:49.076Z,102397.05
2023-02-14T15:55:22.313Z,102396.84
2023-02-14T15:58:03.638Z,102397.96
2023-02-14T16:00:32.943Z,102396.92
2023-02-14T16:03:06.229Z,102398.41
2023-02-14T16:05:35.074Z,102398.80
2023-02-14T16:08:23.382Z,102403.23
2023-02-14T16:11:26.755Z,102410.59
2023-02-14T16:13:55.162Z,102412.10
2023-02-14T16:16:23.717Z,102406.23
2023-02-14T16:18:56.819Z,102407.76
2023-02-14T16:21:28.611Z,102411.08
2023-02-14T16:24:12.298Z,102407.47
2023-02-14T16:26:43.426Z,102407.02
2023-02-14T16:29:16.976Z,102407.27
2023-02-14T16:32:14.172Z,102409.20
2023-02-14T16:34:38.426Z,102412.77
2023-02-14T16:37:09.733Z,102409.52
2023-02-14T16:39:39.592Z,102410.48
2023-02-14T16:42:15.421Z,102409.40
2023-02-14T16:44:45.025Z,102408.21
2023-02-14T16:47:15.810Z,102404.95
2023-02-14T16:49:44.658Z,102404.52
2023-02-14T16:52:18.029Z,102407.23
2023-02-14T16:54:46.499Z,102411.00
2023-02-14T16:57:22.504Z,102415.09
2023-02-14T16:59:51.594Z,102413.89
2023-02-14T17:02:20.602Z,102414.15
2023-02-14T17:04:49.634Z,102412.38
2023-02-14T17:07:18.843Z,102410.89
2023-02-14T17:09:52.987Z,102419.14
2023-02-14T17:12:25.871Z,102416.92
2023-02-14T17:14:58.545Z,102418.35
2023-02-14T17:17:27.251Z,102420.80
2023-02-14T17:19:55.767Z,102420.36
2023-02-14T17:22:24.904Z,102419.77
2023-02-14T17:24:54.633Z,102421.10
2023-02-14T17:27:24.039Z,102425.30
2023-02-14T17:29:52.795Z,102425.57
2023-02-14T17:32:21.288Z,102426.25
2023-02-14T17:34:49.898Z,102420.84
2023-02-14T17:37:19.351Z,102420.80
2023-02-14T17:39:47.879Z,102424.17
2023-02-14T17:42:16.432Z,102419.75
2023-02-14T17:44:45.005Z,102412.98
2023-02-14T17:47:15.061Z,102412.90
2023-02-14T17:49:47.689Z,102412.77
2023-02-14T17:52:16.714Z,102415.48
2023-02-14T17:54:45.156Z,102418.08
2023-02-14T17:57:14.067Z,102418.60
2023-02-14T17:59:42.907Z,102415.66
2023-02-14T18:02:11.472Z,102416.73
2023-02-14T18:04:40.768Z,102414.61
2023-02-14T18:07:09.227Z,102413.16
2023-02-14T18:09:37.813Z,102413.02
2023-02-14T18:12:07.504Z,102419.47
2023-02-14T18:14:36.648Z,102418.94
2023-02-14T18:17:06.141Z,102417.03
2023-02-14T18:19:34.818Z,102421.98
2023-02-14T18:22:03.266Z,102417.87
2023-02-14T18:24:31.707Z,102415.31
2023-02-14T18:27:00.251Z,102414.23
2023-02-14T18:29:28.749Z,102412.94
2023-02-14T18:31:57.209Z,102413.75
2023-02-14T18:34:25.691Z,102408.48
2023-02-14T18:36:55.124Z,102408.09
2023-02-14T18:39:23.659Z,102411.27
2023-02-14T18:41:52.330Z,102414.88
2023-02-14T18:44:22.187Z,102415.17
2023-02-14T18:46:50.639Z,102413.58
2023-02-14T18:49:19.290Z,102410.11
2023-02-14T18:51:49.263Z,102412.71
2023-02-14T18:54:17.733Z,102411.52
2023-02-14T18:56:47.212Z,102406.80
2023-02-14T18:59:16.925Z,102405.52
2023-02-14T19:01:46.269Z,102404.23
2023-02-14T19:04:14.920Z,102399.09
2023-02-14T19:06:43.397Z,102393.95
2023-02-14T19:09:14.581Z,102396.20
2023-02-14T19:11:44.647Z,102394.74
2023-02-14T19:14:13.689Z,102390.07
2023-02-14T19:16:54.351Z,102384.52
2023-02-14T19:19:23.548Z,102387.94
2023-02-14T19:21:52.360Z,102387.63
2023-02-14T19:24:22.166Z,102385.45
2023-02-14T19:26:51.129Z,102382.28
2023-02-14T19:29:21.785Z,102381.45
2023-02-14T19:31:55.045Z,102386.59
2023-02-14T19:34:28.908Z,102385.84
2023-02-14T19:37:00.772Z,102384.89
2023-02-14T19:39:30.498Z,102385.81
2023-02-14T19:42:00.200Z,102386.59
2023-02-14T19:44:29.534Z,102383.63
2023-02-14T19:47:04.142Z,102379.77
2023-02-14T19:49:34.381Z,102383.09
2023-02-14T19:52:06.190Z,102383.91
2023-02-14T19:54:39.015Z,102378.96
2023-02-14T19:57:08.003Z,102379.98
2023-02-14T19:59:36.392Z,102381.70
2023-02-14T20:02:04.956Z,102384.08
2023-02-14T20:04:33.472Z,102381.39
2023-02-14T20:07:01.969Z,102383.46
2023-02-14T20:09:30.436Z,102382.46
2023-02-14T20:11:59.207Z,102386.37
2023-02-14T20:14:38.415Z,102380.40
2023-02-14T20:17:17.459Z,102383.48
2023-02-14T20:19:45.935Z,102382.33
2023-02-14T20:22:14.415Z,102377.80
2023-02-14T20:24:42.923Z,102379.94
2023-02-14T20:27:11.397Z,102376.85
2023-02-14T20:29:43.338Z,102374.54
2023-02-14T20:32:15.053Z,102372.08
2023-02-14T20:34:44.446Z,102375.59
2023-02-14T20:37:12.991Z,102375.67
2023-02-14T20:39:41.425Z,102375.71
2023-02-14T20:42:10.304Z,102373.03
2023-02-14T20:44:38.740Z,102369.00
2023-02-14T20:47:07.721Z,102373.66
2023-02-14T20:49:36.275Z,102371.27
2023-02-14T20:52:05.330Z,102363.91
2023-02-14T20:54:33.884Z,102361.54
2023-02-14T20:57:02.587Z,102352.05
2023-02-14T20:59:31.292Z,102351.63
2023-02-14T21:01:59.795Z,102350.23
2023-02-14T21:04:29.764Z,102349.85
2023-02-14T21:07:00.575Z,102352.77
2023-02-14T21:09:29.112Z,102349.17
2023-02-14T21:11:58.610Z,102352.46
2023-02-14T21:14:27.390Z,102350.42
2023-02-14T21:16:56.360Z,102350.16
2023-02-14T21:19:26.521Z,102349.13
2023-02-14T21:21:55.303Z,102347.34
2023-02-14T21:24:24.626Z,102346.84
2023-02-14T21:26:53.256Z,102338.84
2023-02-14T21:29:21.860Z,102338.14
2023-02-14T21:31:50.497Z,102336.08
2023-02-14T21:34:19.039Z,102338.52
2023-02-14T21:36:47.478Z,102338.27
2023-02-14T21:39:15.993Z,102337.58
2023-02-14T21:41:44.461Z,102331.33
2023-02-14T21:44:32.875Z,102331.45
2023-02-14T21:47:01.368Z,102334.42
2023-02-14T21:49:48.441Z,102331.88
2023-02-14T21:52:16.813Z,102332.34
2023-02-14T21:54:45.260Z,102329.80
2023-02-14T21:57:13.797Z,102330.52
2023-02-14T21:59:42.231Z,102332.56
2023-02-14T22:02:11.805Z,102329.48
2023-02-14T22:04:40.874Z,102327.97
2023-02-14T22:07:09.219Z,102325.30
2023-02-14T22:09:37.678Z,102321.81
2023-02-14T22:12:06.402Z,102318.35
2023-02-14T22:14:34.941Z,102323.48
2023-02-14T22:17:03.690Z,102324.85
2023-02-14T22:19:32.758Z,102322.45
2023-02-14T22:22:01.269Z,102321.23
2023-02-14T22:24:30.216Z,102319.51
2023-02-14T22:26:58.723Z,102317.70
2023-02-14T22:29:28.002Z,102318.70
2023-02-14T22:31:56.508Z,102316.12
2023-02-14T22:34:25.255Z,102314.16
2023-02-14T22:36:53.752Z,102311.23
2023-02-14T22:39:22.620Z,102311.28
2023-02-14T22:41:51.108Z,102309.65
2023-02-14T22:44:19.535Z,102308.42
2023-02-14T22:46:48.103Z,102304.61
2023-02-14T22:49:16.637Z,102307.98
2023-02-14T22:51:45.369Z,102303.46
2023-02-14T22:54:15.895Z,102299.10
2023-02-14T22:56:46.957Z,102295.64
2023-02-14T22:59:19.804Z,102296.05
2023-02-14T23:01:49.967Z,102295.23
2023-02-14T23:04:21.892Z,102292.41
2023-02-14T23:06:52.165Z,102290.74
2023-02-14T23:09:21.373Z,102291.20
2023-02-14T23:11:51.099Z,102286.94
2023-02-14T23:14:39.061Z,102286.45
2023-02-14T23:17:26.123Z,102283.11
2023-02-14T23:20:13.493Z,102278.60
2023-02-14T23:22:42.075Z,102281.98
2023-02-14T23:25:12.686Z,102279.96
2023-02-14T23:27:47.692Z,102284.27
2023-02-14T23:30:19.239Z,102282.16
2023-02-14T23:32:48.486Z,102283.77
2023-02-14T23:35:17.045Z,102280.77
2023-02-14T23:37:45.447Z,102276.17
2023-02-14T23:40:14.415Z,102275.34
2023-02-14T23:42:42.884Z,102271.89
2023-02-14T23:45:30.350Z,102269.77
2023-02-14T23:48:03.943Z,102267.00
2023-02-14T23:50:32.733Z,102269.20
2023-02-14T23:53:01.174Z,102274.27
2023-02-14T23:55:29.636Z,102272.05
2023-02-14T23:57:58.111Z,102275.64
